createdAt,value
2022-08-07T00:02:37.372Z,79.5
2022-08-07T00:07:09.493Z,80.0
2022-08-07T00:12:19.032Z,80.0
2022-08-07T00:17:19.999Z,80.0
2022-08-07T00:22:35.147Z,80.5
2022-08-07T00:27:53.749Z,80.5
2022-08-07T00:32:37.614Z,80.5
2022-08-07T00:37:48.224Z,80.5
2022-08-07T00:42:50.408Z,81.0
2022-08-07T00:48:09.784Z,81.0
2022-08-07T00:53:01.484Z,81.0
2022-08-07T00:58:07.697Z,81.5
2022-08-07T01:03:13.909Z,81.5
2022-08-07T01:08:20.120Z,81.5
2022-08-07T01:13:26.333Z,81.5
2022-08-07T01:18:32.547Z,82.0
2022-08-07T01:23:40.866Z,82.0
2022-08-07T01:28:45.961Z,82.5
2022-08-07T01:33:56.283Z,82.5
2022-08-07T01:38:57.420Z,82.5
2022-08-07T01:44:03.606Z,83.0
2022-08-07T01:49:09.807Z,83.0
2022-08-07T01:54:33.299Z,83.0
2022-08-07T01:59:22.241Z,83.0
2022-08-07T02:04:28.523Z,83.0
2022-08-07T02:09:53.034Z,83.5
2022-08-07T02:14:41.295Z,83.5
2022-08-07T02:20:05.660Z,83.5
2022-08-07T02:24:53.271Z,83.5
2022-08-07T02:29:58.496Z,84.0
2022-08-07T02:35:06.088Z,84.5
2022-08-07T02:40:29.829Z,84.5
2022-08-07T02:45:57.656Z,84.5
2022-08-07T02:50:23.401Z,84.5
2022-08-07T02:56:02.991Z,85.0
2022-08-07T03:00:36.058Z,85.0
2022-08-07T03:05:41.960Z,85.0
2022-08-07T03:10:48.173Z,85.0
2022-08-07T03:15:58.514Z,85.0
2022-08-07T03:21:00.585Z,85.0
2022-08-07T03:26:06.792Z,85.0
2022-08-07T03:31:13.000Z,85.5
2022-08-07T03:36:19.211Z,85.5
2022-08-07T03:41:42.570Z,85.5
2022-08-07T03:46:31.623Z,86.0
2022-08-07T03:51:47.064Z,85.5
2022-08-07T03:57:03.517Z,86.0
2022-08-07T04:01:50.392Z,86.0
2022-08-07T04:06:56.459Z,86.0
2022-08-07T04:12:25.825Z,86.5
2022-08-07T04:17:20.307Z,86.5
2022-08-07T04:22:17.507Z,86.5
2022-08-07T04:27:25.761Z,86.5
2022-08-07T04:32:33.932Z,87.0
2022-08-07T04:38:03.106Z,87.0
2022-08-07T04:42:38.938Z,87.0
2022-08-07T04:48:02.053Z,87.5
2022-08-07T04:52:52.885Z,87.5
2022-08-07T04:58:16.616Z,88.0
2022-08-07T05:03:03.767Z,88.5
2022-08-07T05:08:09.979Z,88.5
2022-08-07T05:14:53.823Z,89.0
2022-08-07T05:18:22.402Z,89.5
2022-08-07T05:23:30.235Z,89.5
2022-08-07T05:28:34.818Z,90.0
2022-08-07T05:33:41.022Z,90.0
2022-08-07T05:39:00.729Z,90.5
2022-08-07T05:44:08.000Z,90.5
2022-08-07T05:48:59.838Z,90.5
2022-08-07T05:54:12.381Z,91.0
2022-08-07T06:04:18.276Z,91.0
2022-08-07T06:10:04.783Z,91.0
2022-08-07T06:14:30.319Z,91.0
2022-08-07T06:19:52.143Z,91.5
2022-08-07T06:24:53.226Z,91.5
2022-08-07T06:29:48.359Z,91.5
2022-08-07T06:34:54.584Z,91.5
2022-08-07T06:40:16.669Z,91.5
2022-08-07T06:45:06.996Z,91.5
2022-08-07T06:50:13.216Z,91.0
2022-08-07T06:55:32.354Z,91.5
2022-08-07T07:00:25.667Z,91.0
2022-08-07T07:06:04.074Z,90.5
2022-08-07T07:10:38.057Z,90.0
2022-08-07T07:15:44.283Z,89.0
2022-08-07T07:20:50.474Z,89.0
2022-08-07T07:26:34.280Z,88.5
2022-08-07T07:31:02.939Z,87.5
2022-08-07T07:36:12.787Z,86.5
2022-08-07T07:41:15.332Z,85.5
2022-08-07T07:46:49.981Z,84.5
2022-08-07T07:51:27.723Z,83.0
2022-08-07T07:56:33.926Z,82.0
2022-08-07T08:02:02.945Z,81.0
2022-08-07T08:06:52.303Z,80.0
2022-08-07T08:12:01.872Z,79.0
2022-08-07T08:17:56.118Z,78.5
2022-08-07T08:22:04.973Z,77.5
2022-08-07T08:27:11.185Z,77.0
2022-08-07T08:32:24.962Z,76.0
2022-08-07T08:38:00.341Z,74.5
2022-08-07T08:42:29.809Z,73.0
2022-08-07T08:47:52.855Z,70.0
2022-08-07T08:52:53.716Z,70.0
2022-08-07T08:57:48.456Z,70.0
2022-08-07T09:02:54.757Z,69.5
2022-08-07T09:08:00.850Z,68.0
2022-08-07T09:13:07.066Z,68.5
2022-08-07T09:18:14.353Z,68.0
2022-08-07T09:24:34.138Z,67.0
2022-08-07T09:30:03.182Z,66.5
2022-08-07T09:33:41.213Z,66.0
2022-08-07T09:38:38.113Z,65.5
2022-08-07T09:44:06.092Z,64.5
2022-08-07T09:49:59.653Z,64.0
2022-08-07T09:54:02.038Z,63.0
2022-08-07T09:59:07.773Z,61.5
2022-08-07T10:04:14.928Z,61.5
2022-08-07T10:09:15.571Z,62.0
2022-08-07T10:14:22.605Z,61.0
2022-08-07T10:19:30.144Z,61.5
2022-08-07T10:24:39.655Z,61.5
2022-08-07T10:29:45.618Z,60.5
2022-08-07T10:34:46.412Z,60.0
2022-08-07T10:40:02.850Z,60.5
2022-08-07T10:44:58.831Z,59.0
2022-08-07T10:50:05.054Z,59.5
2022-08-07T10:55:20.921Z,59.0
2022-08-07T11:00:36.620Z,57.5
2022-08-07T11:05:24.241Z,57.0
2022-08-07T11:10:29.873Z,57.0
2022-08-07T11:15:36.082Z,57.5
2022-08-07T11:20:42.308Z,57.0
2022-08-07T11:25:50.274Z,57.0
2022-08-07T11:30:55.963Z,56.5
2022-08-07T11:36:01.756Z,55.0
2022-08-07T11:41:07.800Z,55.5
2022-08-07T11:46:12.363Z,56.0
2022-08-07T11:51:40.925Z,55.0
2022-08-07T11:56:27.764Z,55.0
2022-08-07T12:01:59.679Z,55.0
2022-08-07T12:06:40.338Z,53.5
2022-08-07T12:12:10.335Z,53.5
2022-08-07T12:16:49.643Z,54.0
2022-08-07T12:22:39.197Z,53.5
2022-08-07T12:27:02.073Z,54.0
2022-08-07T12:32:12.690Z,53.0
2022-08-07T12:37:16.448Z,53.0
2022-08-07T12:42:22.775Z,52.5
2022-08-07T12:47:30.888Z,51.5
2022-08-07T12:52:34.496Z,51.5
2022-08-07T12:58:00.928Z,51.0
2022-08-07T13:02:47.102Z,50.0
2022-08-07T13:08:14.139Z,50.5
2022-08-07T13:12:58.233Z,0.0
2022-08-07T13:18:04.453Z,49.5
2022-08-07T13:24:00.947Z,50.5
2022-08-07T13:28:18.272Z,50.5
2022-08-07T13:34:31.002Z,50.5
2022-08-07T13:38:28.328Z,49.5
2022-08-07T13:43:34.553Z,50.0
2022-08-07T13:48:40.859Z,49.0
2022-08-07T13:53:59.499Z,49.5
2022-08-07T13:58:56.810Z,50.0
2022-08-07T14:04:07.033Z,50.0
2022-08-07T14:09:05.635Z,49.5
2022-08-07T14:14:11.860Z,49.0
2022-08-07T14:20:41.675Z,49.5
2022-08-07T14:24:24.289Z,48.5
2022-08-07T14:30:09.792Z,48.0
2022-08-07T14:34:45.631Z,48.5
2022-08-07T14:40:16.779Z,48.5
2022-08-07T14:44:49.160Z,48.5
2022-08-07T14:49:56.923Z,48.5
2022-08-07T14:55:01.601Z,48.0
2022-08-07T15:00:07.857Z,47.5
2022-08-07T15:05:20.343Z,47.5
2022-08-07T15:10:20.262Z,47.5
2022-08-07T15:15:26.475Z,46.5
2022-08-07T15:20:35.737Z,46.5
2022-08-07T15:25:38.921Z,46.5
2022-08-07T15:30:59.564Z,47.5
2022-08-07T15:36:01.782Z,47.5
2022-08-07T15:41:00.299Z,46.5
2022-08-07T15:46:31.888Z,46.5
2022-08-07T15:56:16.302Z,46.5
2022-08-07T16:01:22.528Z,46.5
2022-08-07T16:06:28.709Z,46.5
2022-08-07T16:11:40.008Z,47.0
2022-08-07T16:16:47.987Z,47.0
2022-08-07T16:22:04.183Z,46.5
2022-08-07T16:26:59.645Z,47.0
2022-08-07T16:32:00.722Z,47.5
2022-08-07T16:38:04.283Z,47.5
2022-08-07T16:42:12.227Z,47.5
2022-08-07T16:47:45.215Z,47.5
2022-08-07T16:52:50.726Z,47.5
2022-08-07T16:58:02.727Z,48.0
2022-08-07T17:02:53.222Z,47.5
2022-08-07T17:07:55.046Z,47.5
2022-08-07T17:12:53.302Z,48.0
2022-08-07T17:17:55.760Z,48.0
2022-08-07T17:23:01.982Z,48.5
2022-08-07T17:28:08.191Z,49.0
2022-08-07T17:34:08.747Z,50.0
2022-08-07T17:38:33.878Z,50.5
2022-08-07T17:44:03.209Z,50.0
2022-08-07T17:48:33.069Z,50.0
2022-08-07T17:54:01.633Z,50.5
2022-08-07T17:58:46.358Z,50.5
2022-08-07T18:04:04.614Z,51.0
2022-08-07T18:09:05.381Z,51.5
2022-08-07T18:14:04.116Z,51.5
2022-08-07T18:21:09.469Z,51.5
2022-08-07T18:24:33.425Z,52.0
2022-08-07T18:30:05.842Z,52.0
2022-08-07T18:34:37.717Z,52.5
2022-08-07T18:40:07.290Z,53.0
2022-08-07T18:45:39.613Z,53.0
2022-08-07T18:50:31.640Z,53.5
2022-08-07T18:54:53.788Z,54.5
2022-08-07T19:00:00.634Z,55.0
2022-08-07T19:05:09.995Z,55.5
2022-08-07T19:10:18.434Z,56.5
2022-08-07T19:16:03.229Z,56.5
2022-08-07T19:20:28.999Z,57.0
2022-08-07T19:26:22.968Z,57.5
2022-08-07T19:31:00.064Z,58.5
2022-08-07T19:35:42.483Z,59.0
2022-08-07T19:40:50.626Z,59.5
2022-08-07T19:46:07.270Z,60.5
2022-08-07T19:51:01.109Z,61.0
2022-08-07T19:56:12.143Z,61.5
2022-08-07T20:01:13.546Z,61.5
2022-08-07T20:06:30.468Z,62.5
2022-08-07T20:12:00.887Z,63.0
2022-08-07T20:16:35.670Z,63.5
2022-08-07T20:21:42.056Z,64.0
2022-08-07T20:26:46.057Z,64.5
2022-08-07T20:31:50.767Z,65.0
2022-08-07T20:36:56.988Z,65.5
2022-08-07T20:42:03.187Z,66.0
2022-08-07T20:47:09.649Z,66.5
2022-08-07T20:52:17.108Z,67.0
2022-08-07T20:57:21.881Z,67.5
2022-08-07T21:02:28.429Z,67.5
2022-08-07T21:07:34.371Z,68.0
2022-08-07T21:12:41.238Z,68.5
2022-08-07T21:18:01.929Z,69.0
2022-08-07T21:22:53.733Z,69.5
2022-08-07T21:28:01.884Z,70.0
2022-08-07T21:33:05.272Z,70.0
2022-08-07T21:38:11.482Z,70.5
2022-08-07T21:43:17.690Z,71.0
2022-08-07T21:48:27.648Z,71.0
2022-08-07T21:53:30.132Z,71.5
2022-08-07T21:58:36.311Z,71.5
2022-08-07T22:03:42.519Z,72.0
2022-08-07T22:08:48.734Z,72.5
2022-08-07T22:13:55.444Z,72.5
2022-08-07T22:19:01.238Z,72.5
2022-08-07T22:24:07.355Z,73.0
2022-08-07T22:29:14.050Z,73.0
2022-08-07T22:34:19.771Z,73.0
2022-08-07T22:39:26.034Z,73.5
2022-08-07T22:44:32.626Z,73.5
2022-08-07T22:49:38.396Z,74.0
2022-08-07T22:54:49.021Z,74.0
2022-08-07T22:59:50.818Z,74.0
2022-08-07T23:06:05.019Z,74.5
2022-08-07T23:10:34.353Z,75.0
2022-08-07T23:15:09.429Z,75.0
2022-08-07T23:20:15.637Z,75.5
2022-08-07T23:25:21.858Z,75.5
2022-08-07T23:30:37.498Z,76.0
2022-08-07T23:35:37.510Z,76.5
2022-08-07T23:40:41.164Z,77.0
2022-08-07T23:46:02.624Z,77.0
2022-08-07T23:50:54.486Z,77.0
2022-08-07T23:55:59.110Z,77.5
